sensor_id;sensor_type;location;lat;lon;timestamp;temperature;humidity
45549;DHT22;31270;48.328;10.096;2023-06-04T00:02:12;13.40;99.90
45549;DHT22;31270;48.328;10.096;2023-06-04T00:04:38;13.40;99.90
45549;DHT22;31270;48.328;10.096;2023-06-04T00:07:04;13.40;99.90
45549;DHT22;31270;48.328;10.096;2023-06-04T00:09:29;13.40;99.90
45549;DHT22;31270;48.328;10.096;2023-06-04T00:11:55;13.40;99.90
45549;DHT22;31270;48.328;10.096;2023-06-04T00:14:21;13.30;99.90
45549;DHT22;31270;48.328;10.096;2023-06-04T00:16:47;13.30;99.90
45549;DHT22;31270;48.328;10.096;2023-06-04T00:19:13;13.20;99.90
45549;DHT22;31270;48.328;10.096;2023-06-04T00:21:38;13.20;99.90
45549;DHT22;31270;48.328;10.096;2023-06-04T00:24:04;13.20;99.90
45549;DHT22;31270;48.328;10.096;2023-06-04T00:26:30;13.20;99.90
45549;DHT22;31270;48.328;10.096;2023-06-04T00:28:55;13.20;99.90
45549;DHT22;31270;48.328;10.096;2023-06-04T00:31:21;13.20;99.90
45549;DHT22;31270;48.328;10.096;2023-06-04T00:33:47;13.10;99.90
45549;DHT22;31270;48.328;10.096;2023-06-04T00:36:13;13.10;99.90
45549;DHT22;31270;48.328;10.096;2023-06-04T00:38:38;13.10;99.90
45549;DHT22;31270;48.328;10.096;2023-06-04T00:41:04;13.00;99.90
45549;DHT22;31270;48.328;10.096;2023-06-04T00:43:30;13.00;99.90
45549;DHT22;31270;48.328;10.096;2023-06-04T00:45:57;13.00;99.90
45549;DHT22;31270;48.328;10.096;2023-06-04T00:48:23;12.90;99.90
45549;DHT22;31270;48.328;10.096;2023-06-04T00:50:50;12.90;99.90
45549;DHT22;31270;48.328;10.096;2023-06-04T00:53:16;12.80;99.90
45549;DHT22;31270;48.328;10.096;2023-06-04T00:55:42;12.80;99.90
45549;DHT22;31270;48.328;10.096;2023-06-04T00:58:08;12.80;99.90
45549;DHT22;31270;48.328;10.096;2023-06-04T01:00:36;12.60;99.90
45549;DHT22;31270;48.328;10.096;2023-06-04T01:03:06;12.60;99.90
45549;DHT22;31270;48.328;10.096;2023-06-04T01:06:04;12.50;99.90
45549;DHT22;31270;48.328;10.096;2023-06-04T01:08:31;12.50;99.90
45549;DHT22;31270;48.328;10.096;2023-06-04T01:10:57;12.50;99.90
45549;DHT22;31270;48.328;10.096;2023-06-04T01:13:23;12.50;99.90
45549;DHT22;31270;48.328;10.096;2023-06-04T01:15:49;12.50;99.90
45549;DHT22;31270;48.328;10.096;2023-06-04T01:18:20;12.40;99.90
45549;DHT22;31270;48.328;10.096;2023-06-04T01:20:58;12.40;99.90
45549;DHT22;31270;48.328;10.096;2023-06-04T01:23:46;12.40;99.90
45549;DHT22;31270;48.328;10.096;2023-06-04T01:26:13;12.40;99.90
45549;DHT22;31270;48.328;10.096;2023-06-04T01:28:39;12.40;99.90
45549;DHT22;31270;48.328;10.096;2023-06-04T01:31:06;12.40;99.90
45549;DHT22;31270;48.328;10.096;2023-06-04T01:33:34;12.40;99.90
45549;DHT22;31270;48.328;10.096;2023-06-04T01:36:01;12.30;99.90
45549;DHT22;31270;48.328;10.096;2023-06-04T01:38:27;12.30;99.90
45549;DHT22;31270;48.328;10.096;2023-06-04T01:40:53;12.20;99.90
45549;DHT22;31270;48.328;10.096;2023-06-04T01:43:22;12.10;99.90
45549;DHT22;31270;48.328;10.096;2023-06-04T01:45:48;12.10;99.90
45549;DHT22;31270;48.328;10.096;2023-06-04T01:48:14;12.10;99.90
45549;DHT22;31270;48.328;10.096;2023-06-04T01:50:39;12.10;99.90
45549;DHT22;31270;48.328;10.096;2023-06-04T01:53:05;12.10;99.90
45549;DHT22;31270;48.328;10.096;2023-06-04T01:55:31;12.00;99.90
45549;DHT22;31270;48.328;10.096;2023-06-04T01:57:59;12.00;99.90
45549;DHT22;31270;48.328;10.096;2023-06-04T02:00:24;12.10;99.90
45549;DHT22;31270;48.328;10.096;2023-06-04T02:02:50;11.90;99.90
45549;DHT22;31270;48.328;10.096;2023-06-04T02:05:17;12.00;99.90
45549;DHT22;31270;48.328;10.096;2023-06-04T02:07:45;11.90;99.90
45549;DHT22;31270;48.328;10.096;2023-06-04T02:10:15;11.90;99.90
45549;DHT22;31270;48.328;10.096;2023-06-04T02:12:53;11.80;99.90
45549;DHT22;31270;48.328;10.096;2023-06-04T02:15:19;11.80;99.90
45549;DHT22;31270;48.328;10.096;2023-06-04T02:17:45;11.80;99.90
45549;DHT22;31270;48.328;10.096;2023-06-04T02:20:13;11.80;99.90
45549;DHT22;31270;48.328;10.096;2023-06-04T02:22:38;11.70;99.90
45549;DHT22;31270;48.328;10.096;2023-06-04T02:25:05;11.60;99.90
45549;DHT22;31270;48.328;10.096;2023-06-04T02:27:30;11.60;99.90
45549;DHT22;31270;48.328;10.096;2023-06-04T02:29:56;11.50;99.90
45549;DHT22;31270;48.328;10.096;2023-06-04T02:32:22;11.50;99.90
45549;DHT22;31270;48.328;10.096;2023-06-04T02:34:47;11.50;99.90
45549;DHT22;31270;48.328;10.096;2023-06-04T02:37:14;11.50;99.90
45549;DHT22;31270;48.328;10.096;2023-06-04T02:39:39;11.50;99.90
45549;DHT22;31270;48.328;10.096;2023-06-04T02:42:05;11.50;99.90
45549;DHT22;31270;48.328;10.096;2023-06-04T02:44:31;11.50;99.90
45549;DHT22;31270;48.328;10.096;2023-06-04T02:46:57;11.50;99.90
45549;DHT22;31270;48.328;10.096;2023-06-04T02:49:22;11.40;99.90
45549;DHT22;31270;48.328;10.096;2023-06-04T02:51:48;11.40;99.90
45549;DHT22;31270;48.328;10.096;2023-06-04T02:54:13;11.40;99.90
45549;DHT22;31270;48.328;10.096;2023-06-04T02:56:39;11.40;99.90
45549;DHT22;31270;48.328;10.096;2023-06-04T02:59:06;11.40;99.90
45549;DHT22;31270;48.328;10.096;2023-06-04T03:01:34;11.40;99.90
45549;DHT22;31270;48.328;10.096;2023-06-04T03:04:00;11.40;99.90
45549;DHT22;31270;48.328;10.096;2023-06-04T03:06:29;11.30;99.90
45549;DHT22;31270;48.328;10.096;2023-06-04T03:08:55;11.30;99.90
45549;DHT22;31270;48.328;10.096;2023-06-04T03:11:21;11.20;99.90
45549;DHT22;31270;48.328;10.096;2023-06-04T03:13:47;11.20;99.90
45549;DHT22;31270;48.328;10.096;2023-06-04T03:16:13;11.20;99.90
45549;DHT22;31270;48.328;10.096;2023-06-04T03:18:40;11.20;99.90
45549;DHT22;31270;48.328;10.096;2023-06-04T03:21:07;11.10;99.90
45549;DHT22;31270;48.328;10.096;2023-06-04T03:23:33;11.10;99.90
45549;DHT22;31270;48.328;10.096;2023-06-04T03:26:01;11.10;99.90
45549;DHT22;31270;48.328;10.096;2023-06-04T03:31:11;11.00;99.90
45549;DHT22;31270;48.328;10.096;2023-06-04T03:33:37;11.00;99.90
45549;DHT22;31270;48.328;10.096;2023-06-04T03:36:03;10.90;99.90
45549;DHT22;31270;48.328;10.096;2023-06-04T03:38:29;10.90;99.90
45549;DHT22;31270;48.328;10.096;2023-06-04T03:40:55;10.80;99.90
45549;DHT22;31270;48.328;10.096;2023-06-04T03:43:21;10.80;99.90
45549;DHT22;31270;48.328;10.096;2023-06-04T03:45:47;10.80;99.90
45549;DHT22;31270;48.328;10.096;2023-06-04T03:48:12;10.80;99.90
45549;DHT22;31270;48.328;10.096;2023-06-04T03:50:38;10.80;99.90
45549;DHT22;31270;48.328;10.096;2023-06-04T03:53:04;10.70;99.90
45549;DHT22;31270;48.328;10.096;2023-06-04T03:55:32;10.80;99.90
45549;DHT22;31270;48.328;10.096;2023-06-04T03:57:58;10.80;99.90
45549;DHT22;31270;48.328;10.096;2023-06-04T04:00:24;10.80;99.90
45549;DHT22;31270;48.328;10.096;2023-06-04T04:02:50;10.80;99.90
45549;DHT22;31270;48.328;10.096;2023-06-04T04:05:16;10.80;99.90
45549;DHT22;31270;48.328;10.096;2023-06-04T04:07:42;10.80;99.90
45549;DHT22;31270;48.328;10.096;2023-06-04T04:10:08;10.90;99.90
45549;DHT22;31270;48.328;10.096;2023-06-04T04:12:33;11.00;99.90
45549;DHT22;31270;48.328;10.096;2023-06-04T04:14:59;11.00;99.90
45549;DHT22;31270;48.328;10.096;2023-06-04T04:17:25;11.10;99.90
45549;DHT22;31270;48.328;10.096;2023-06-04T04:19:51;11.10;99.90
45549;DHT22;31270;48.328;10.096;2023-06-04T04:22:17;11.20;99.90
45549;DHT22;31270;48.328;10.096;2023-06-04T04:24:43;11.20;99.90
45549;DHT22;31270;48.328;10.096;2023-06-04T04:27:09;11.20;99.90
45549;DHT22;31270;48.328;10.096;2023-06-04T04:29:38;11.20;99.90
45549;DHT22;31270;48.328;10.096;2023-06-04T04:32:04;11.30;99.90
45549;DHT22;31270;48.328;10.096;2023-06-04T04:34:36;11.40;99.90
45549;DHT22;31270;48.328;10.096;2023-06-04T04:37:05;11.50;99.90
45549;DHT22;31270;48.328;10.096;2023-06-04T04:39:34;11.50;99.90
45549;DHT22;31270;48.328;10.096;2023-06-04T04:42:00;11.60;99.90
45549;DHT22;31270;48.328;10.096;2023-06-04T04:44:26;11.70;99.90
45549;DHT22;31270;48.328;10.096;2023-06-04T04:46:52;11.80;99.90
45549;DHT22;31270;48.328;10.096;2023-06-04T04:49:18;11.90;99.90
45549;DHT22;31270;48.328;10.096;2023-06-04T04:51:43;12.00;99.90
45549;DHT22;31270;48.328;10.096;2023-06-04T04:54:09;12.00;99.90
45549;DHT22;31270;48.328;10.096;2023-06-04T04:56:35;12.20;99.90
45549;DHT22;31270;48.328;10.096;2023-06-04T04:59:01;12.20;99.90
45549;DHT22;31270;48.328;10.096;2023-06-04T05:01:26;12.40;99.90
45549;DHT22;31270;48.328;10.096;2023-06-04T05:03:52;12.40;99.90
45549;DHT22;31270;48.328;10.096;2023-06-04T05:06:17;12.50;99.90
45549;DHT22;31270;48.328;10.096;2023-06-04T05:08:43;12.70;99.90
45549;DHT22;31270;48.328;10.096;2023-06-04T05:11:09;12.80;99.90
45549;DHT22;31270;48.328;10.096;2023-06-04T05:13:34;12.90;99.90
45549;DHT22;31270;48.328;10.096;2023-06-04T05:16:01;13.10;99.90
45549;DHT22;31270;48.328;10.096;2023-06-04T05:18:32;13.10;99.90
45549;DHT22;31270;48.328;10.096;2023-06-04T05:20:58;13.20;99.90
45549;DHT22;31270;48.328;10.096;2023-06-04T05:23:26;13.30;99.90
45549;DHT22;31270;48.328;10.096;2023-06-04T05:25:52;13.50;99.90
45549;DHT22;31270;48.328;10.096;2023-06-04T05:28:18;13.50;99.90
45549;DHT22;31270;48.328;10.096;2023-06-04T05:30:44;13.60;99.90
45549;DHT22;31270;48.328;10.096;2023-06-04T05:33:09;13.60;99.90
45549;DHT22;31270;48.328;10.096;2023-06-04T05:35:45;13.60;99.90
45549;DHT22;31270;48.328;10.096;2023-06-04T05:38:11;13.50;99.90
45549;DHT22;31270;48.328;10.096;2023-06-04T05:40:40;13.40;99.90
45549;DHT22;31270;48.328;10.096;2023-06-04T05:43:06;13.40;99.90
45549;DHT22;31270;48.328;10.096;2023-06-04T05:45:32;13.50;99.90
45549;DHT22;31270;48.328;10.096;2023-06-04T05:47:58;13.40;99.90
45549;DHT22;31270;48.328;10.096;2023-06-04T05:50:23;13.40;99.90
45549;DHT22;31270;48.328;10.096;2023-06-04T05:52:50;13.40;99.90
45549;DHT22;31270;48.328;10.096;2023-06-04T05:55:16;13.40;99.90
45549;DHT22;31270;48.328;10.096;2023-06-04T05:57:42;13.30;99.90
45549;DHT22;31270;48.328;10.096;2023-06-04T06:00:08;13.30;99.90
45549;DHT22;31270;48.328;10.096;2023-06-04T06:02:36;13.30;99.90
45549;DHT22;31270;48.328;10.096;2023-06-04T06:05:04;13.40;99.90
45549;DHT22;31270;48.328;10.096;2023-06-04T06:07:32;13.40;99.90
45549;DHT22;31270;48.328;10.096;2023-06-04T06:09:58;13.40;99.90
45549;DHT22;31270;48.328;10.096;2023-06-04T06:12:23;13.50;99.90
45549;DHT22;31270;48.328;10.096;2023-06-04T06:14:49;13.70;99.90
45549;DHT22;31270;48.328;10.096;2023-06-04T06:17:14;14.00;99.90
45549;DHT22;31270;48.328;10.096;2023-06-04T06:19:40;14.20;99.90
45549;DHT22;31270;48.328;10.096;2023-06-04T06:22:05;14.50;99.90
45549;DHT22;31270;48.328;10.096;2023-06-04T06:24:31;14.80;99.90
45549;DHT22;31270;48.328;10.096;2023-06-04T06:26:56;15.00;99.90
45549;DHT22;31270;48.328;10.096;2023-06-04T06:29:22;15.10;99.90
45549;DHT22;31270;48.328;10.096;2023-06-04T06:31:47;15.30;99.90
45549;DHT22;31270;48.328;10.096;2023-06-04T06:34:13;15.40;99.90
45549;DHT22;31270;48.328;10.096;2023-06-04T06:36:39;15.60;99.90
45549;DHT22;31270;48.328;10.096;2023-06-04T06:39:04;15.70;99.90
45549;DHT22;31270;48.328;10.096;2023-06-04T06:41:30;15.80;99.90
45549;DHT22;31270;48.328;10.096;2023-06-04T06:43:57;16.00;99.90
45549;DHT22;31270;48.328;10.096;2023-06-04T06:46:23;16.20;99.90
45549;DHT22;31270;48.328;10.096;2023-06-04T06:48:48;16.30;99.90
45549;DHT22;31270;48.328;10.096;2023-06-04T06:51:14;16.30;99.90
45549;DHT22;31270;48.328;10.096;2023-06-04T06:53:40;16.50;99.90
45549;DHT22;31270;48.328;10.096;2023-06-04T06:56:06;16.90;99.90
45549;DHT22;31270;48.328;10.096;2023-06-04T06:58:32;17.00;99.90
45549;DHT22;31270;48.328;10.096;2023-06-04T07:00:59;17.00;99.90
45549;DHT22;31270;48.328;10.096;2023-06-04T07:03:25;17.10;99.90
45549;DHT22;31270;48.328;10.096;2023-06-04T07:05:51;17.20;99.90
45549;DHT22;31270;48.328;10.096;2023-06-04T07:08:16;17.40;99.90
45549;DHT22;31270;48.328;10.096;2023-06-04T07:10:43;17.50;99.90
45549;DHT22;31270;48.328;10.096;2023-06-04T07:13:08;17.80;99.90
45549;DHT22;31270;48.328;10.096;2023-06-04T07:15:34;18.10;99.90
45549;DHT22;31270;48.328;10.096;2023-06-04T07:17:59;18.30;99.90
45549;DHT22;31270;48.328;10.096;2023-06-04T07:20:25;18.50;99.90
45549;DHT22;31270;48.328;10.096;2023-06-04T07:22:51;18.60;99.90
45549;DHT22;31270;48.328;10.096;2023-06-04T07:25:16;19.00;99.90
45549;DHT22;31270;48.328;10.096;2023-06-04T07:27:42;19.30;99.90
45549;DHT22;31270;48.328;10.096;2023-06-04T07:30:09;19.30;99.90
45549;DHT22;31270;48.328;10.096;2023-06-04T07:32:35;19.30;99.90
45549;DHT22;31270;48.328;10.096;2023-06-04T07:35:02;19.10;99.90
45549;DHT22;31270;48.328;10.096;2023-06-04T07:37:28;19.10;99.90
45549;DHT22;31270;48.328;10.096;2023-06-04T07:39:53;19.30;99.90
45549;DHT22;31270;48.328;10.096;2023-06-04T07:42:19;19.30;99.90
45549;DHT22;31270;48.328;10.096;2023-06-04T07:44:44;19.50;99.90
45549;DHT22;31270;48.328;10.096;2023-06-04T07:47:10;19.40;99.90
45549;DHT22;31270;48.328;10.096;2023-06-04T07:49:36;19.30;99.90
45549;DHT22;31270;48.328;10.096;2023-06-04T07:52:01;19.40;99.90
45549;DHT22;31270;48.328;10.096;2023-06-04T07:54:27;19.80;99.90
45549;DHT22;31270;48.328;10.096;2023-06-04T07:56:52;19.80;99.90
45549;DHT22;31270;48.328;10.096;2023-06-04T07:59:24;19.90;99.90
45549;DHT22;31270;48.328;10.096;2023-06-04T08:01:51;20.00;99.90
45549;DHT22;31270;48.328;10.096;2023-06-04T08:04:17;20.20;99.90
45549;DHT22;31270;48.328;10.096;2023-06-04T08:06:43;20.50;99.90
45549;DHT22;31270;48.328;10.096;2023-06-04T08:09:10;20.50;99.90
45549;DHT22;31270;48.328;10.096;2023-06-04T08:11:37;20.60;99.90
45549;DHT22;31270;48.328;10.096;2023-06-04T08:14:02;20.50;99.90
45549;DHT22;31270;48.328;10.096;2023-06-04T08:16:28;20.70;99.90
45549;DHT22;31270;48.328;10.096;2023-06-04T08:18:53;20.70;99.90
45549;DHT22;31270;48.328;10.096;2023-06-04T08:21:26;20.90;99.90
45549;DHT22;31270;48.328;10.096;2023-06-04T08:23:52;20.80;99.90
45549;DHT22;31270;48.328;10.096;2023-06-04T08:26:19;20.80;99.90
45549;DHT22;31270;48.328;10.096;2023-06-04T08:28:48;20.90;99.90
45549;DHT22;31270;48.328;10.096;2023-06-04T08:31:14;21.30;99.90
45549;DHT22;31270;48.328;10.096;2023-06-04T08:33:40;21.40;99.90
45549;DHT22;31270;48.328;10.096;2023-06-04T08:36:05;21.50;99.90
45549;DHT22;31270;48.328;10.096;2023-06-04T08:38:32;21.60;99.90
45549;DHT22;31270;48.328;10.096;2023-06-04T08:41:10;21.50;99.90
45549;DHT22;31270;48.328;10.096;2023-06-04T08:43:39;21.60;99.90
45549;DHT22;31270;48.328;10.096;2023-06-04T08:46:05;21.80;99.90
45549;DHT22;31270;48.328;10.096;2023-06-04T08:48:34;22.10;99.90
45549;DHT22;31270;48.328;10.096;2023-06-04T08:51:03;22.10;99.90
45549;DHT22;31270;48.328;10.096;2023-06-04T08:53:31;22.20;99.90
45549;DHT22;31270;48.328;10.096;2023-06-04T08:55:57;22.20;99.30
45549;DHT22;31270;48.328;10.096;2023-06-04T08:58:23;22.40;99.90
45549;DHT22;31270;48.328;10.096;2023-06-04T09:00:49;22.60;99.50
45549;DHT22;31270;48.328;10.096;2023-06-04T09:03:16;22.70;99.90
45549;DHT22;31270;48.328;10.096;2023-06-04T09:05:44;22.70;99.20
45549;DHT22;31270;48.328;10.096;2023-06-04T09:08:14;22.60;99.50
45549;DHT22;31270;48.328;10.096;2023-06-04T09:10:41;22.60;99.00
45549;DHT22;31270;48.328;10.096;2023-06-04T09:13:07;22.90;99.00
45549;DHT22;31270;48.328;10.096;2023-06-04T09:15:33;23.00;99.50
45549;DHT22;31270;48.328;10.096;2023-06-04T09:17:59;23.00;99.00
45549;DHT22;31270;48.328;10.096;2023-06-04T09:20:25;23.30;99.70
45549;DHT22;31270;48.328;10.096;2023-06-04T09:22:51;23.70;98.90
45549;DHT22;31270;48.328;10.096;2023-06-04T09:25:27;23.90;99.10
45549;DHT22;31270;48.328;10.096;2023-06-04T09:28:05;24.00;98.30
45549;DHT22;31270;48.328;10.096;2023-06-04T09:30:31;23.90;98.30
45549;DHT22;31270;48.328;10.096;2023-06-04T09:33:07;24.20;99.90
45549;DHT22;31270;48.328;10.096;2023-06-04T09:35:33;24.50;99.60
45549;DHT22;31270;48.328;10.096;2023-06-04T09:37:58;24.60;97.80
45549;DHT22;31270;48.328;10.096;2023-06-04T09:40:24;24.60;97.80
45549;DHT22;31270;48.328;10.096;2023-06-04T09:42:51;24.70;96.00
45549;DHT22;31270;48.328;10.096;2023-06-04T09:45:33;24.90;97.80
45549;DHT22;31270;48.328;10.096;2023-06-04T09:48:04;25.00;96.90
45549;DHT22;31270;48.328;10.096;2023-06-04T09:50:34;25.10;95.90
45549;DHT22;31270;48.328;10.096;2023-06-04T09:53:01;25.10;95.70
45549;DHT22;31270;48.328;10.096;2023-06-04T09:55:27;25.50;96.60
45549;DHT22;31270;48.328;10.096;2023-06-04T09:57:53;25.30;96.70
45549;DHT22;31270;48.328;10.096;2023-06-04T10:00:20;25.10;94.80
45549;DHT22;31270;48.328;10.096;2023-06-04T10:02:48;25.20;95.00
45549;DHT22;31270;48.328;10.096;2023-06-04T10:05:15;25.10;95.90
45549;DHT22;31270;48.328;10.096;2023-06-04T10:07:45;25.20;96.50
45549;DHT22;31270;48.328;10.096;2023-06-04T10:10:16;25.40;95.50
45549;DHT22;31270;48.328;10.096;2023-06-04T10:12:43;25.30;94.10
45549;DHT22;31270;48.328;10.096;2023-06-04T10:15:12;25.30;95.30
45549;DHT22;31270;48.328;10.096;2023-06-04T10:17:38;25.60;95.10
45549;DHT22;31270;48.328;10.096;2023-06-04T10:20:05;25.90;96.90
45549;DHT22;31270;48.328;10.096;2023-06-04T10:22:34;26.50;94.40
45549;DHT22;31270;48.328;10.096;2023-06-04T10:25:00;26.60;94.40
45549;DHT22;31270;48.328;10.096;2023-06-04T10:27:26;26.50;94.10
45549;DHT22;31270;48.328;10.096;2023-06-04T10:29:52;26.80;94.30
45549;DHT22;31270;48.328;10.096;2023-06-04T10:32:18;27.10;93.60
45549;DHT22;31270;48.328;10.096;2023-06-04T10:34:46;26.90;92.00
45549;DHT22;31270;48.328;10.096;2023-06-04T10:37:28;26.70;92.80
45549;DHT22;31270;48.328;10.096;2023-06-04T10:39:58;26.90;92.80
45549;DHT22;31270;48.328;10.096;2023-06-04T10:42:24;27.20;93.10
45549;DHT22;31270;48.328;10.096;2023-06-04T10:44:51;27.50;93.40
45549;DHT22;31270;48.328;10.096;2023-06-04T10:47:29;27.80;91.40
45549;DHT22;31270;48.328;10.096;2023-06-04T10:50:10;27.60;90.60
45549;DHT22;31270;48.328;10.096;2023-06-04T10:52:36;27.00;92.20
45549;DHT22;31270;48.328;10.096;2023-06-04T10:55:06;27.30;91.10
45549;DHT22;31270;48.328;10.096;2023-06-04T10:57:34;27.30;90.00
45549;DHT22;31270;48.328;10.096;2023-06-04T11:00:01;27.20;90.30
45549;DHT22;31270;48.328;10.096;2023-06-04T11:02:29;27.40;92.20
45549;DHT22;31270;48.328;10.096;2023-06-04T11:05:05;27.20;90.40
45549;DHT22;31270;48.328;10.096;2023-06-04T11:08:00;27.60;88.90
45549;DHT22;31270;48.328;10.096;2023-06-04T11:10:32;27.60;85.90
45549;DHT22;31270;48.328;10.096;2023-06-04T11:12:59;27.60;87.10
45549;DHT22;31270;48.328;10.096;2023-06-04T11:15:24;27.40;85.80
45549;DHT22;31270;48.328;10.096;2023-06-04T11:20:17;28.40;89.70
45549;DHT22;31270;48.328;10.096;2023-06-04T11:22:54;28.30;82.60
45549;DHT22;31270;48.328;10.096;2023-06-04T11:25:20;28.00;82.60
45549;DHT22;31270;48.328;10.096;2023-06-04T11:27:48;27.40;82.60
45549;DHT22;31270;48.328;10.096;2023-06-04T11:30:14;27.00;83.80
45549;DHT22;31270;48.328;10.096;2023-06-04T11:32:41;26.70;84.70
45549;DHT22;31270;48.328;10.096;2023-06-04T11:35:07;26.40;83.80
45549;DHT22;31270;48.328;10.096;2023-06-04T11:37:33;26.10;85.60
45549;DHT22;31270;48.328;10.096;2023-06-04T11:39:59;26.00;84.10
45549;DHT22;31270;48.328;10.096;2023-06-04T11:42:29;25.80;83.60
45549;DHT22;31270;48.328;10.096;2023-06-04T11:44:57;26.10;86.80
45549;DHT22;31270;48.328;10.096;2023-06-04T11:47:23;26.40;82.30
45549;DHT22;31270;48.328;10.096;2023-06-04T11:49:54;27.00;87.70
45549;DHT22;31270;48.328;10.096;2023-06-04T11:52:21;27.60;88.30
45549;DHT22;31270;48.328;10.096;2023-06-04T11:54:47;27.70;87.30
45549;DHT22;31270;48.328;10.096;2023-06-04T11:57:13;27.90;82.30
45549;DHT22;31270;48.328;10.096;2023-06-04T11:59:39;27.80;86.70
45549;DHT22;31270;48.328;10.096;2023-06-04T12:02:06;27.70;84.50
45549;DHT22;31270;48.328;10.096;2023-06-04T12:04:33;27.50;84.20
45549;DHT22;31270;48.328;10.096;2023-06-04T12:07:00;27.50;84.00
45549;DHT22;31270;48.328;10.096;2023-06-04T12:09:30;27.50;82.10
45549;DHT22;31270;48.328;10.096;2023-06-04T12:12:04;27.70;84.60
45549;DHT22;31270;48.328;10.096;2023-06-04T12:14:31;28.20;82.30
45549;DHT22;31270;48.328;10.096;2023-06-04T12:17:10;27.50;82.60
45549;DHT22;31270;48.328;10.096;2023-06-04T12:19:49;26.70;81.30
45549;DHT22;31270;48.328;10.096;2023-06-04T12:22:15;26.30;83.00
45549;DHT22;31270;48.328;10.096;2023-06-04T12:24:50;25.80;82.00
45549;DHT22;31270;48.328;10.096;2023-06-04T12:27:23;25.60;83.90
45549;DHT22;31270;48.328;10.096;2023-06-04T12:30:04;25.20;86.30
45549;DHT22;31270;48.328;10.096;2023-06-04T12:32:35;25.60;89.30
45549;DHT22;31270;48.328;10.096;2023-06-04T12:35:01;25.60;83.60
45549;DHT22;31270;48.328;10.096;2023-06-04T12:37:27;25.50;83.10
45549;DHT22;31270;48.328;10.096;2023-06-04T12:39:56;25.70;86.40
45549;DHT22;31270;48.328;10.096;2023-06-04T12:42:22;26.10;84.20
45549;DHT22;31270;48.328;10.096;2023-06-04T12:44:51;26.10;82.20
45549;DHT22;31270;48.328;10.096;2023-06-04T12:47:17;25.70;82.10
45549;DHT22;31270;48.328;10.096;2023-06-04T12:49:43;25.50;81.60
45549;DHT22;31270;48.328;10.096;2023-06-04T12:52:09;25.60;81.70
45549;DHT22;31270;48.328;10.096;2023-06-04T12:54:35;26.00;85.00
45549;DHT22;31270;48.328;10.096;2023-06-04T12:57:01;26.30;85.40
45549;DHT22;31270;48.328;10.096;2023-06-04T12:59:27;26.80;83.10
45549;DHT22;31270;48.328;10.096;2023-06-04T13:01:54;27.10;81.60
45549;DHT22;31270;48.328;10.096;2023-06-04T13:04:20;26.80;79.30
45549;DHT22;31270;48.328;10.096;2023-06-04T13:06:46;26.90;83.50
45549;DHT22;31270;48.328;10.096;2023-06-04T13:09:12;27.10;79.80
45549;DHT22;31270;48.328;10.096;2023-06-04T13:11:42;27.10;82.90
45549;DHT22;31270;48.328;10.096;2023-06-04T13:14:09;27.30;80.20
45549;DHT22;31270;48.328;10.096;2023-06-04T13:16:35;27.60;83.30
45549;DHT22;31270;48.328;10.096;2023-06-04T13:19:02;27.50;79.20
45549;DHT22;31270;48.328;10.096;2023-06-04T13:21:27;27.40;78.20
45549;DHT22;31270;48.328;10.096;2023-06-04T13:23:53;27.60;80.30
45549;DHT22;31270;48.328;10.096;2023-06-04T13:26:19;27.10;79.50
45549;DHT22;31270;48.328;10.096;2023-06-04T13:28:45;26.70;78.80
45549;DHT22;31270;48.328;10.096;2023-06-04T13:31:10;26.30;78.80
45549;DHT22;31270;48.328;10.096;2023-06-04T13:33:36;26.60;78.00
45549;DHT22;31270;48.328;10.096;2023-06-04T13:39:26;27.10;80.00
45549;DHT22;31270;48.328;10.096;2023-06-04T13:41:51;27.10;78.70
45549;DHT22;31270;48.328;10.096;2023-06-04T13:44:17;27.20;79.10
45549;DHT22;31270;48.328;10.096;2023-06-04T13:46:43;27.30;79.60
45549;DHT22;31270;48.328;10.096;2023-06-04T13:49:09;27.30;76.30
45549;DHT22;31270;48.328;10.096;2023-06-04T13:51:34;27.20;76.20
45549;DHT22;31270;48.328;10.096;2023-06-04T13:54:01;26.50;76.80
45549;DHT22;31270;48.328;10.096;2023-06-04T13:56:27;26.00;77.90
45549;DHT22;31270;48.328;10.096;2023-06-04T13:58:52;25.60;78.10
45549;DHT22;31270;48.328;10.096;2023-06-04T14:01:18;25.60;80.20
45549;DHT22;31270;48.328;10.096;2023-06-04T14:03:44;25.60;79.10
45549;DHT22;31270;48.328;10.096;2023-06-04T14:06:09;25.80;78.10
45549;DHT22;31270;48.328;10.096;2023-06-04T14:08:35;26.00;80.40
45549;DHT22;31270;48.328;10.096;2023-06-04T14:11:01;26.10;79.30
45549;DHT22;31270;48.328;10.096;2023-06-04T14:13:26;26.30;74.70
45549;DHT22;31270;48.328;10.096;2023-06-04T14:15:52;26.20;76.10
45549;DHT22;31270;48.328;10.096;2023-06-04T14:18:18;26.60;81.10
45549;DHT22;31270;48.328;10.096;2023-06-04T14:20:44;26.90;75.70
45549;DHT22;31270;48.328;10.096;2023-06-04T14:23:10;27.20;75.80
45549;DHT22;31270;48.328;10.096;2023-06-04T14:25:37;27.30;75.00
45549;DHT22;31270;48.328;10.096;2023-06-04T14:28:03;27.30;77.50
45549;DHT22;31270;48.328;10.096;2023-06-04T14:30:29;27.50;75.70
45549;DHT22;31270;48.328;10.096;2023-06-04T14:32:54;27.80;73.50
45549;DHT22;31270;48.328;10.096;2023-06-04T14:35:20;27.70;71.10
45549;DHT22;31270;48.328;10.096;2023-06-04T14:37:45;27.60;74.10
45549;DHT22;31270;48.328;10.096;2023-06-04T14:40:11;27.50;72.70
45549;DHT22;31270;48.328;10.096;2023-06-04T14:42:37;27.10;71.20
45549;DHT22;31270;48.328;10.096;2023-06-04T14:45:03;27.20;74.40
45549;DHT22;31270;48.328;10.096;2023-06-04T14:47:28;27.20;70.80
45549;DHT22;31270;48.328;10.096;2023-06-04T14:49:54;27.30;72.20
45549;DHT22;31270;48.328;10.096;2023-06-04T14:52:19;27.10;71.00
45549;DHT22;31270;48.328;10.096;2023-06-04T14:54:45;27.00;72.60
45549;DHT22;31270;48.328;10.096;2023-06-04T14:57:11;26.90;73.30
45549;DHT22;31270;48.328;10.096;2023-06-04T14:59:38;27.00;73.10
45549;DHT22;31270;48.328;10.096;2023-06-04T15:02:05;26.80;71.40
45549;DHT22;31270;48.328;10.096;2023-06-04T15:04:30;26.70;70.70
45549;DHT22;31270;48.328;10.096;2023-06-04T15:06:56;26.60;71.40
45549;DHT22;31270;48.328;10.096;2023-06-04T15:09:21;26.10;71.70
45549;DHT22;31270;48.328;10.096;2023-06-04T15:11:47;25.90;73.00
45549;DHT22;31270;48.328;10.096;2023-06-04T15:14:13;26.00;72.60
45549;DHT22;31270;48.328;10.096;2023-06-04T15:16:38;25.90;73.50
45549;DHT22;31270;48.328;10.096;2023-06-04T15:19:04;25.80;73.10
45549;DHT22;31270;48.328;10.096;2023-06-04T15:21:29;25.90;75.60
45549;DHT22;31270;48.328;10.096;2023-06-04T15:23:55;25.90;71.60